الصفحة الرئيسية
METAR-TAF:

METAR-TAF

مطار :

مطار ديوري حماني

نيامي, النيجر

دائرة عرض: 13-29N, خط طول: 002-10E, ارتفاع: 223 متر

مراقبة الطقس الحالي

تاريخ ووقت الإصدار 23 دقيقة قبل الساعة 11:00UTC
ريح 13 عقدة من الشمال الشرقي
درجة الحرارة 32°درجة مئوية
الرطوبة 8%
ضغط 1018 hPa
الرؤية: 8000 متر

METAR: DRRN 151100Z 05013KT 8000 NSC 32/M07 Q1018 NOSIG

زمن: 12:23 (11:23 UTC)

توقعات

تاريخ ووقت الإصدار 6ساعات و 23 دقيقة قبل الساعة 05:00UTC
التوقعات صالحة من15 الساعة 06 UTC إلى 16 الساعة 12 UTC
ريح 8 عقدة من الشمال الشرقي
الرؤية: 8000 متر
مؤقت
من 15 الساعة 06 UTC إلى 15 الساعة 09 UTC
الرؤية: 4000 متر
غبار
مؤقت
من 15 الساعة 09 UTC إلى 15 الساعة 13 UTC
ريح 18 عقدة من الشرق
الرؤية: 4500 متر
هبوب الغبار
مؤقت
من 15 الساعة 17 UTC إلى 15 الساعة 20 UTC
الرؤية: 4000 متر
غبار

TAF: DRRN 150500Z 1506/1612 04008KT 8000 NSC TEMPO 1506/1509 4000 DU TEMPO 1509/1513 08018KT 4500 BLDU TEMPO 1517/1520 4000 DU

أرصاد الطقس والتوقعات من أكثر من 4000 مطار (تقارير الطقس للمطار METAR والتنبؤ بالطقس بالمطارTAF).

المحطات المتاحة هي النقط الصفراء والحمراء على الخريطة.

حرك المؤشر فوق النقطة لمعرفة اسم المحطة.

ثم انقر لمعرفة أرصاد وتوقعات الطقس.

لتغيير الخارطة: اضغط على الأزرار الخضراء مع رمز الصليب الأسود للتكبير. على الزر الأخضر مع شرطة للتصغير، أو على الأسهم الخضراء للخرائط المجاورة.


METAR-TAF: